ホノルル の空港の天気 - METARとTAF

ホノルル国際空港 ( PHNL / HNL ) - アメリカ ハワイ州ホノルル
飛行場実況気象(Metar)
観測時間05/20 12:53 HST (05/20 22:53 UTC)
風向・風速南南東 6m/s
視程10km以上
天気現象
少しの雲 雲底高度 850m
少しの雲 雲底高度 1190m
気温29.4℃
湿度59%
気圧1016.4hPa
METARPHNL 202253Z 15012KT 10SM FEW028 FEW039 29/21 A3002 RMK AO2 SLP164 T02940206
過去の天気等 Google飛行場航空写真 Wunderground天気予報

過去48時間のMETAR

飛行場予報(TAF)
発表時間: 5/20 10:55 HST (5/20 20:55 UTC)
予報対象時間: 20日11時 HST ~ 21日14時 HST
風向・風速南東 5m/s
視程10km以上
少しの雲 雲底高度 760m
全天の4割程度の雲 雲底高度 1370m
全天の4割程度の雲 雲底高度 6100m
20日19時 HST から
風向・風速不定 3m/s
視程10km以上
少しの雲 雲底高度 760m
少しの雲 雲底高度 1370m
全天の8割程度の雲 雲底高度 6100m
21日10時 HST から
風向・風速南南西 4m/s
視程10km以上
少しの雲 雲底高度 760m
全天の4割程度の雲 雲底高度 1370m
PHNL 202055Z 2021/2124 14010KT P6SM FEW025 SCT045 SCT200
FM210500 VRB05KT P6SM FEW025 FEW045 BKN200
FM212000 20008KT P6SM FEW025 SCT045